• Join FlightAware (Why Join?)
  • Login
  • US Flag 
06:34AM EDT


 

Airport Tracker/Info


-or-


 

Live Flight TrackerFlight Track Log ✈ TCY723 ✈ 06-May-2012 ✈ KBOS - KLEW

Flight Track Log - Related Links

Times and Time Zones

All times are in EDT time to prevent confusion due to time zone crossing. See the TCY723 flight status page for this flight to view local times or setup timezone preferences in your user account.

Time Position Orientation Groundspeed Altitude Reporting Facility
EDT Latitude Longitude Course Direction KTS MPH feet Rate Location/Type
03:07PM 42.3833 -71.0000 340° North 107 123 600  Level Boston TRACON
03:08PM 42.4167 -71.0167 360° North 116 133 1,900 960 Climbing Boston TRACON
03:09PM 42.4500 -71.0167 360° North 121 139 3,000 900 Climbing Boston TRACON
03:10PM 42.4833 -71.0167 360° North 117 135 3,800 900 Climbing Boston TRACON
03:11PM 42.5167 -71.0167 20° North 117 135 4,900 900 Climbing Boston TRACON
03:12PM 42.5500 -71.0000 360° North 120 138 5,800 840 Climbing Boston TRACON
03:13PM 42.5833 -71.0000 360° North 123 142 6,600 600 Climbing Boston TRACON
03:14PM 42.6167 -71.0000 14° North 130 150 7,100 240 Climbing Boston TRACON
03:15PM 42.6667 -70.9833 20° North 158 182 7,100  Level Boston TRACON
03:16PM 42.7000 -70.9667 14° North 166 191 7,100  Level Boston TRACON
03:17PM 42.7500 -70.9500 360° North 164 189 7,100  Level Boston TRACON
03:18PM 42.8000 -70.9500 14° North 167 192 7,100  Level Boston TRACON
03:19PM 42.8500 -70.9333 20° North 169 194 7,100  Level Boston TRACON
03:20PM 42.8833 -70.9167 26° Northeast 173 199 7,100  Level Boston TRACON
03:21PM 42.9333 -70.8833 14° North 169 194 7,100  Level Boston TRACON
03:22PM 42.9833 -70.8667 20° North 164 189 7,100  Level Boston TRACON
03:23PM 43.0167 -70.8500 23° Northeast 167 192 7,100  Level Boston TRACON
03:31PM 43.2405 -70.7201 22° Northeast  Level FlightAware Approximate
03:32PM 43.2696 -70.7038 22° Northeast  Level FlightAware Approximate
03:33PM 43.2987 -70.6875 31° Northeast  Level FlightAware Approximate
03:34PM 43.3250 -70.6655 22° Northeast  Level FlightAware Approximate
03:35PM 43.3542 -70.6495 22° Northeast  Level FlightAware Approximate
03:36PM 43.3834 -70.6334 22° Northeast  Level FlightAware Approximate
03:37PM 43.4126 -70.6174 42° Northeast  Level FlightAware Approximate
03:38PM 43.4338 -70.5915 21° North  Level FlightAware Approximate
03:39PM 43.4632 -70.5760 21° North  Level FlightAware Approximate
03:40PM 43.4925 -70.5606 21° North  Level FlightAware Approximate
03:41PM 43.5219 -70.5451 21° North  Level FlightAware Approximate
03:42PM 43.5513 -70.5296 21° North  Level FlightAware Approximate
03:43PM 43.5807 -70.5141 21° North  Level FlightAware Approximate
03:44PM 43.6100 -70.4986 19° North  Level FlightAware Approximate
03:45PM 43.6390 -70.4852 25° Northeast  Level FlightAware Approximate
03:46PM 43.6673 -70.4665 21° North  Level FlightAware Approximate
03:47PM 43.6967 -70.4510 21° North  Level FlightAware Approximate